Time;durP1;ratioP1;P1;durP2;ratioP2;P2;SDS_P1;SDS_P2;PMS_P1;PMS_P2;Temp;Humidity;BMP_temperature;BMP_pressure;BME280_temperature;BME280_humidity;BME280_pressure;Samples;Min_cycle;Max_cycle;Signal;HPM_P1;HPM_P2
2022/06/23 00:00:29;;;;;;;12.95;10.85;;;;;;;;;;6129265;23;19997;-82
2022/06/23 00:02:56;;;;;;;10.95;9.75;;;;;;;;;;6155542;23;20002;-82
2022/06/23 00:05:24;;;;;;;12.20;10.13;;;;;;;;;;6155254;23;20001;-83
2022/06/23 00:07:55;;;;;;;11.18;10.00;;;;;;;;;;6155324;23;20072;-83
2022/06/23 00:10:24;;;;;;;11.25;9.80;;;;;;;;;;6155434;23;20001;-84
2022/06/23 00:12:50;;;;;;;12.10;9.65;;;;;;;;;;6155506;23;20056;-83
2022/06/23 00:15:22;;;;;;;12.77;9.82;;;;;;;;;;6155283;23;19997;-84
2022/06/23 00:17:57;;;;;;;11.73;9.75;;;;;;;;;;6129197;23;20017;-83
2022/06/23 00:20:34;;;;;;;14.02;10.13;;;;;;;;;;6155448;23;20004;-83
2022/06/23 00:23:06;;;;;;;12.23;9.70;;;;;;;;;;6155246;23;20008;-83
2022/06/23 00:25:33;;;;;;;11.32;8.60;;;;;;;;;;6129213;23;20373;-82
2022/06/23 00:27:59;;;;;;;13.02;9.30;;;;;;;;;;6155207;23;20006;-83
2022/06/23 00:30:27;;;;;;;12.38;9.48;;;;;;;;;;6129390;23;20378;-83
2022/06/23 00:32:53;;;;;;;10.98;9.00;;;;;;;;;;6155038;23;20012;-82
2022/06/23 00:35:20;;;;;;;12.07;9.60;;;;;;;;;;6155350;23;20008;-83
2022/06/23 00:37:49;;;;;;;12.00;9.73;;;;;;;;;;6154938;23;20006;-82
2022/06/23 00:40:18;;;;;;;10.45;9.35;;;;;;;;;;6155366;23;20081;-83
2022/06/23 00:42:56;;;;;;;11.27;10.18;;;;;;;;;;6154918;23;20002;-82
2022/06/23 00:45:33;;;;;;;10.18;9.10;;;;;;;;;;6155280;23;20038;-82
2022/06/23 00:47:59;;;;;;;12.02;10.55;;;;;;;;;;6154880;23;20334;-82
2022/06/23 00:50:32;;;;;;;10.95;9.48;;;;;;;;;;6155074;23;20010;-83
2022/06/23 00:53:16;;;;;;;14.15;10.43;;;;;;;;;;6155107;23;20438;-83
2022/06/23 00:55:45;;;;;;;12.55;9.48;;;;;;;;;;6155289;23;20437;-83
2022/06/23 00:58:17;;;;;;;10.45;9.40;;;;;;;;;;6154739;23;20107;-83
2022/06/23 01:00:44;;;;;;;11.93;10.27;;;;;;;;;;6155162;23;20021;-82
2022/06/23 01:03:31;;;;;;;10.93;9.82;;;;;;;;;;6154916;23;20418;-83
2022/06/23 01:06:05;;;;;;;11.05;9.75;;;;;;;;;;6154921;23;20081;-82
2022/06/23 01:08:35;;;;;;;11.05;9.85;;;;;;;;;;6154765;23;20020;-82
2022/06/23 01:11:04;;;;;;;13.40;10.07;;;;;;;;;;6128940;23;20001;-83
2022/06/23 01:13:51;;;;;;;11.68;9.75;;;;;;;;;;6154913;23;19997;-82
2022/06/23 01:16:20;;;;;;;12.70;10.70;;;;;;;;;;6154874;23;20012;-82
2022/06/23 01:18:52;;;;;;;10.75;9.65;;;;;;;;;;6154987;23;20093;-83
2022/06/23 01:21:21;;;;;;;13.13;10.27;;;;;;;;;;6154848;23;19998;-82
2022/06/23 01:23:47;;;;;;;10.95;9.85;;;;;;;;;;6154973;23;20056;-82
2022/06/23 01:26:16;;;;;;;12.05;10.35;;;;;;;;;;6154837;23;20008;-82
2022/06/23 01:28:43;;;;;;;15.07;10.77;;;;;;;;;;6155117;23;20012;-82
2022/06/23 01:31:18;;;;;;;13.05;10.77;;;;;;;;;;6154729;23;20006;-82
2022/06/23 01:33:44;;;;;;;12.23;10.55;;;;;;;;;;6154957;23;20001;-82
2022/06/23 01:36:28;;;;;;;11.57;10.38;;;;;;;;;;6154723;23;20009;-83
2022/06/23 01:39:00;;;;;;;13.10;10.13;;;;;;;;;;6154533;23;20334;-82
2022/06/23 01:41:26;;;;;;;11.50;9.95;;;;;;;;;;6154958;23;19994;-82
2022/06/23 01:43:59;;;;;;;12.38;10.95;;;;;;;;;;6154720;23;20057;-82
2022/06/23 01:46:30;;;;;;;13.20;10.77;;;;;;;;;;6154930;23;19997;-82
2022/06/23 01:48:57;;;;;;;13.05;11.45;;;;;;;;;;6154799;23;20434;-82
2022/06/23 01:51:42;;;;;;;12.82;11.52;;;;;;;;;;6155164;23;20422;-82
2022/06/23 01:54:11;;;;;;;12.52;10.07;;;;;;;;;;6154874;23;20009;-82
2022/06/23 01:56:37;;;;;;;13.98;10.77;;;;;;;;;;6128606;23;20398;-82
2022/06/23 01:59:13;;;;;;;12.07;10.88;;;;;;;;;;6154761;23;20068;-82
2022/06/23 02:01:58;;;;;;;13.95;12.45;;;;;;;;;;6156740;23;20001;-82
2022/06/23 02:04:42;;;;;;;11.85;10.30;;;;;;;;;;6156634;23;20012;-82
2022/06/23 02:07:18;;;;;;;14.70;11.77;;;;;;;;;;6156389;23;20068;-82
2022/06/23 02:09:53;;;;;;;12.45;10.35;;;;;;;;;;6156448;23;20002;-82
2022/06/23 02:12:31;;;;;;;15.55;11.05;;;;;;;;;;6156607;23;20008;-82
2022/06/23 02:15:04;;;;;;;14.07;10.88;;;;;;;;;;6156567;23;20016;-82
2022/06/23 02:17:34;;;;;;;12.05;10.60;;;;;;;;;;6156243;23;20006;-82
2022/06/23 02:20:15;;;;;;;14.20;12.70;;;;;;;;;;6156527;23;19998;-82
2022/06/23 02:22:44;;;;;;;11.57;10.20;;;;;;;;;;6156534;23;20006;-82
2022/06/23 02:25:18;;;;;;;13.90;10.90;;;;;;;;;;6156186;23;20006;-81
2022/06/23 02:27:47;;;;;;;12.77;11.55;;;;;;;;;;6156536;23;19998;-82
2022/06/23 02:30:19;;;;;;;13.25;11.85;;;;;;;;;;6156180;23;20052;-82
2022/06/23 02:33:04;;;;;;;14.88;11.93;;;;;;;;;;6156544;23;20326;-82
2022/06/23 02:35:43;;;;;;;12.70;11.52;;;;;;;;;;6130416;23;20405;-82
2022/06/23 02:38:27;;;;;;;13.93;12.10;;;;;;;;;;6156321;23;20032;-82
2022/06/23 02:40:57;;;;;;;14.07;11.70;;;;;;;;;;6156332;23;19997;-82
2022/06/23 02:43:25;;;;;;;14.07;12.50;;;;;;;;;;6156072;23;20069;-83
2022/06/23 02:46:09;;;;;;;14.90;11.95;;;;;;;;;;6156466;23;20421;-82
2022/06/23 02:48:44;;;;;;;13.43;11.80;;;;;;;;;;6156378;23;20005;-83
2022/06/23 02:51:10;;;;;;;13.13;11.77;;;;;;;;;;6156380;23;20025;-82
2022/06/23 02:53:46;;;;;;;12.85;10.90;;;;;;;;;;6156308;23;20037;-82
2022/06/23 02:56:31;;;;;;;12.30;10.95;;;;;;;;;;6156162;23;20444;-83
2022/06/23 02:59:01;;;;;;;12.40;10.75;;;;;;;;;;6155999;23;20005;-82
2022/06/23 03:01:38;;;;;;;15.02;12.90;;;;;;;;;;6155942;23;20005;-83
2022/06/23 03:04:06;;;;;;;13.13;11.15;;;;;;;;;;6156084;23;20112;-82
2022/06/23 03:06:41;;;;;;;14.60;11.50;;;;;;;;;;6155606;23;20017;-82
2022/06/23 03:09:16;;;;;;;14.18;12.18;;;;;;;;;;6156064;23;20064;-83
2022/06/23 03:12:11;;;;;;;15.68;12.35;;;;;;;;;;6155832;23;20002;-83
2022/06/23 03:14:37;;;;;;;12.85;11.50;;;;;;;;;;6125325;23;20080;-83
2022/06/23 03:17:11;;;;;;;19.48;12.88;;;;;;;;;;6155784;23;20001;-82
2022/06/23 03:19:42;;;;;;;15.32;11.93;;;;;;;;;;6155878;23;20010;-82
2022/06/23 03:22:18;;;;;;;13.13;11.73;;;;;;;;;;6155820;23;20052;-82
2022/06/23 03:25:03;;;;;;;18.05;12.50;;;;;;;;;;6155685;23;20002;-82
2022/06/23 03:27:55;;;;;;;14.45;12.13;;;;;;;;;;6155696;23;20001;-82
2022/06/23 03:30:28;;;;;;;15.73;12.18;;;;;;;;;;6149265;23;20010;-82
2022/06/23 03:32:59;;;;;;;14.23;12.02;;;;;;;;;;6155641;23;20009;-82
2022/06/23 03:35:28;;;;;;;13.88;11.65;;;;;;;;;;6155894;23;20430;-82
2022/06/23 03:38:19;;;;;;;15.20;11.68;;;;;;;;;;6155484;23;20333;-82
2022/06/23 03:43:33;;;;;;;14.68;12.70;;;;;;;;;;6155817;23;20021;-82
2022/06/23 03:46:04;;;;;;;15.32;12.65;;;;;;;;;;6155655;23;19994;-82
2022/06/23 03:48:33;;;;;;;14.95;13.23;;;;;;;;;;6155746;23;20013;-82
2022/06/23 03:51:01;;;;;;;15.10;12.77;;;;;;;;;;6155822;23;20299;-82
2022/06/23 03:53:31;;;;;;;17.45;13.00;;;;;;;;;;6155896;23;20334;-82
2022/06/23 03:55:59;;;;;;;14.35;12.85;;;;;;;;;;6155457;23;20008;-82
2022/06/23 03:58:25;;;;;;;16.40;13.45;;;;;;;;;;6155428;23;20032;-82
2022/06/23 04:01:02;;;;;;;15.85;13.38;;;;;;;;;;6155657;23;19997;-82
2022/06/23 04:03:32;;;;;;;16.73;13.82;;;;;;;;;;6155630;23;19998;-82
2022/06/23 04:06:02;;;;;;;17.63;12.70;;;;;;;;;;6155213;23;20503;-83
2022/06/23 04:08:32;;;;;;;14.65;12.60;;;;;;;;;;6155183;23;20461;-81
2022/06/23 04:11:43;;;;;;;15.60;12.60;;;;;;;;;;6154965;23;20076;-82
2022/06/23 04:13:45;;;;;;;13.68;12.02;;;;;;;;;;6154839;23;20002;-84
2022/06/23 04:16:13;;;;;;;13.27;11.40;;;;;;;;;;6129094;23;20005;-85
2022/06/23 04:18:42;;;;;;;16.25;13.40;;;;;;;;;;6154911;23;20008;-83
2022/06/23 04:21:10;;;;;;;15.75;12.25;;;;;;;;;;6129388;23;20008;-82
2022/06/23 04:23:50;;;;;;;13.55;12.18;;;;;;;;;;6154158;23;19998;-83
2022/06/23 04:26:20;;;;;;;14.98;12.35;;;;;;;;;;6128510;23;20006;-82
2022/06/23 04:28:48;;;;;;;13.90;11.85;;;;;;;;;;6128284;23;20009;-80
2022/06/23 04:31:32;;;;;;;17.90;11.75;;;;;;;;;;6154794;23;20012;-82
2022/06/23 04:33:59;;;;;;;19.00;15.80;;;;;;;;;;6154357;23;20099;-79
2022/06/23 04:36:34;;;;;;;25.98;23.20;;;;;;;;;;6128335;23;20005;-81
2022/06/23 04:39:07;;;;;;;16.80;14.32;;;;;;;;;;6153810;23;20012;-81
2022/06/23 04:41:52;;;;;;;37.42;33.53;;;;;;;;;;6154985;23;20032;-83
2022/06/23 04:44:21;;;;;;;32.58;28.98;;;;;;;;;;6154289;23;20488;-82
2022/06/23 04:46:53;;;;;;;29.15;26.05;;;;;;;;;;6154605;23;20080;-80
2022/06/23 04:49:25;;;;;;;22.88;20.38;;;;;;;;;;6154998;23;20011;-80
2022/06/23 04:52:04;;;;;;;17.65;14.90;;;;;;;;;;6155254;23;20005;-83
2022/06/23 04:54:33;;;;;;;31.00;23.77;;;;;;;;;;6154501;23;20032;-85
2022/06/23 04:57:15;;;;;;;14.18;12.63;;;;;;;;;;6128552;23;20437;-83
2022/06/23 04:59:41;;;;;;;18.55;13.50;;;;;;;;;;6128334;23;20001;-83
2022/06/23 05:02:23;;;;;;;16.50;12.15;;;;;;;;;;6154785;23;20006;-85
2022/06/23 05:05:12;;;;;;;12.27;11.18;;;;;;;;;;6154787;23;19998;-80
2022/06/23 05:07:53;;;;;;;17.40;11.38;;;;;;;;;;6135946;23;20021;-80
2022/06/23 05:10:24;;;;;;;15.30;11.15;;;;;;;;;;6154902;23;20001;-84
2022/06/23 05:12:54;;;;;;;28.90;24.58;;;;;;;;;;6154480;23;20365;-82
2022/06/23 05:15:31;;;;;;;17.20;13.65;;;;;;;;;;6153693;23;20001;-80
2022/06/23 05:18:02;;;;;;;14.70;11.18;;;;;;;;;;6154119;23;20006;-82
2022/06/23 05:20:43;;;;;;;14.85;10.45;;;;;;;;;;6154082;23;20002;-83
2022/06/23 05:23:15;;;;;;;15.98;12.15;;;;;;;;;;6152754;23;20013;-83
2022/06/23 05:25:44;;;;;;;14.57;10.88;;;;;;;;;;6154075;23;19998;-81
2022/06/23 05:28:29;;;;;;;13.23;10.50;;;;;;;;;;6127601;23;20429;-82
2022/06/23 05:31:00;;;;;;;15.43;11.27;;;;;;;;;;6153287;23;20080;-79
2022/06/23 05:33:28;;;;;;;10.57;9.68;;;;;;;;;;6152947;23;20087;-81
2022/06/23 05:35:57;;;;;;;12.02;9.15;;;;;;;;;;6156006;23;20338;-84
2022/06/23 05:38:23;;;;;;;15.18;13.10;;;;;;;;;;6128216;23;20044;-82
2022/06/23 05:40:54;;;;;;;15.52;12.88;;;;;;;;;;6154125;23;20056;-74
2022/06/23 05:43:21;;;;;;;19.85;14.68;;;;;;;;;;6128957;23;20040;-85
2022/06/23 05:45:53;;;;;;;21.50;15.13;;;;;;;;;;6130996;23;19998;-88
2022/06/23 05:48:38;;;;;;;20.35;12.73;;;;;;;;;;6152407;23;20005;-84
2022/06/23 05:51:10;;;;;;;14.00;10.88;;;;;;;;;;6129493;23;20009;-84
2022/06/23 05:53:36;;;;;;;15.25;12.32;;;;;;;;;;6155862;23;20013;-91
2022/06/23 05:56:15;;;;;;;23.52;15.88;;;;;;;;;;6155439;23;20002;-87
2022/06/23 05:58:47;;;;;;;138.95;61.45;;;;;;;;;;6129929;23;20013;-83
2022/06/23 06:01:32;;;;;;;142.50;57.05;;;;;;;;;;6129032;23;20009;-88
2022/06/23 06:04:04;;;;;;;225.63;96.53;;;;;;;;;;6155447;23;20040;-87
2022/06/23 06:06:31;;;;;;;147.63;64.57;;;;;;;;;;6127866;23;20021;-86
2022/06/23 06:11:45;;;;;;;106.28;47.45;;;;;;;;;;6154904;23;20152;-87
2022/06/23 06:14:14;;;;;;;51.67;27.75;;;;;;;;;;6128759;23;20009;-85
2022/06/23 06:16:40;;;;;;;49.75;25.90;;;;;;;;;;6128555;23;20014;-85
2022/06/23 06:19:06;;;;;;;59.80;47.28;;;;;;;;;;6154631;23;20307;-82
2022/06/23 06:21:35;;;;;;;42.55;30.15;;;;;;;;;;6154222;23;20052;-85
2022/06/23 06:24:01;;;;;;;60.60;35.63;;;;;;;;;;6155392;23;19998;-82
2022/06/23 06:26:39;;;;;;;359.35;136.90;;;;;;;;;;6154226;23;20013;-85
2022/06/23 06:29:36;;;;;;;242.43;97.30;;;;;;;;;;6155517;23;20001;-83
2022/06/23 06:32:20;;;;;;;81.47;35.38;;;;;;;;;;6128569;23;20012;-84
2022/06/23 06:35:08;;;;;;;96.63;40.20;;;;;;;;;;6155015;23;20006;-85
2022/06/23 06:37:45;;;;;;;26.83;15.45;;;;;;;;;;6154823;23;20017;-89
2022/06/23 06:40:12;;;;;;;28.08;15.55;;;;;;;;;;6129180;23;20009;-85
2022/06/23 06:43:02;;;;;;;32.25;17.55;;;;;;;;;;6128429;23;20495;-83
2022/06/23 06:45:34;;;;;;;29.45;16.42;;;;;;;;;;6128871;23;20466;-89
2022/06/23 06:51:25;;;;;;;22.77;15.55;;;;;;;;;;6150721;23;20017;-84
2022/06/23 06:53:56;;;;;;;161.15;68.25;;;;;;;;;;6129602;23;20018;-84
2022/06/23 06:56:41;;;;;;;58.50;28.23;;;;;;;;;;6154522;23;20005;-91
2022/06/23 06:59:14;;;;;;;80.70;35.80;;;;;;;;;;6154239;23;20025;-85
2022/06/23 07:01:41;;;;;;;69.97;35.13;;;;;;;;;;6155092;23;20002;-88
2022/06/23 07:04:10;;;;;;;67.82;30.77;;;;;;;;;;6154195;23;19997;-87
2022/06/23 07:06:39;;;;;;;62.13;29.55;;;;;;;;;;6128035;23;20021;-86
2022/06/23 07:18:02;;;;;;;23.27;12.63;;;;;;;;;;6128825;23;20851;-84
2022/06/23 07:20:33;;;;;;;11.63;10.25;;;;;;;;;;6136820;23;20010;-85
2022/06/23 07:23:13;;;;;;;36.28;20.35;;;;;;;;;;6126851;23;20422;-82
2022/06/23 07:25:42;;;;;;;32.88;18.77;;;;;;;;;;6154219;23;20018;-82
2022/06/23 07:28:14;;;;;;;36.38;20.80;;;;;;;;;;6154428;23;20072;-84
2022/06/23 07:33:57;;;;;;;89.75;44.45;;;;;;;;;;6140710;23;20323;-87
2022/06/23 07:36:29;;;;;;;166.85;73.70;;;;;;;;;;6154414;23;20085;-90
2022/06/23 07:39:03;;;;;;;100.07;47.05;;;;;;;;;;6154151;23;20005;-87
2022/06/23 07:41:32;;;;;;;204.98;82.38;;;;;;;;;;6154015;23;20056;-86
2022/06/23 07:43:58;;;;;;;345.05;138.07;;;;;;;;;;6154043;23;20068;-89
2022/06/23 07:46:25;;;;;;;47.97;26.50;;;;;;;;;;6127990;23;20012;-86
2022/06/23 07:48:53;;;;;;;28.17;15.30;;;;;;;;;;6152972;23;20032;-85
2022/06/23 07:51:32;;;;;;;;;;;;;;;;;;;;;
2022/06/23 07:57:08;;;;;;;79.47;36.30;;;;;;;;;;6091699;23;20018;-82
2022/06/23 07:59:40;;;;;;;71.93;35.00;;;;;;;;;;6091993;23;20010;-80
2022/06/23 08:02:14;;;;;;;50.58;25.73;;;;;;;;;;6129844;23;20014;-85
2022/06/23 08:04:52;;;;;;;30.52;16.00;;;;;;;;;;6154170;23;20357;-84
2022/06/23 08:07:18;;;;;;;25.50;16.27;;;;;;;;;;6152515;23;20029;-84
2022/06/23 08:10:03;;;;;;;21.65;13.40;;;;;;;;;;6154855;23;20385;-83
2022/06/23 08:12:58;;;;;;;18.42;13.15;;;;;;;;;;6154517;23;20076;-85
2022/06/23 08:18:12;;;;;;;17.02;13.75;;;;;;;;;;6154363;23;20023;-83
2022/06/23 08:20:42;;;;;;;13.45;11.10;;;;;;;;;;6154901;23;20012;-84
2022/06/23 08:23:09;;;;;;;13.68;11.25;;;;;;;;;;6128819;23;20037;-85
2022/06/23 08:25:35;;;;;;;28.20;19.80;;;;;;;;;;6126493;23;20001;-84
2022/06/23 08:28:02;;;;;;;32.35;20.92;;;;;;;;;;6127961;23;20009;-80
2022/06/23 08:30:28;;;;;;;97.32;44.28;;;;;;;;;;6128344;23;20076;-82
2022/06/23 08:32:56;;;;;;;48.58;24.15;;;;;;;;;;6128619;23;20009;-85
2022/06/23 08:35:25;;;;;;;23.90;15.02;;;;;;;;;;6153927;23;20001;-80
2022/06/23 08:37:56;;;;;;;13.32;10.18;;;;;;;;;;6153480;23;20441;-82
2022/06/23 08:40:31;;;;;;;11.02;8.90;;;;;;;;;;6128565;23;20426;-86
2022/06/23 08:43:04;;;;;;;17.75;9.57;;;;;;;;;;6154650;23;20049;-84
2022/06/23 08:45:30;;;;;;;12.93;9.03;;;;;;;;;;6127143;23;20004;-85
2022/06/23 08:48:21;;;;;;;11.20;8.75;;;;;;;;;;6127843;23;20018;-85
2022/06/23 08:51:10;;;;;;;15.43;9.00;;;;;;;;;;6128169;23;20337;-83
2022/06/23 08:53:54;;;;;;;9.50;8.13;;;;;;;;;;6135600;23;20076;-83
2022/06/23 08:56:22;;;;;;;11.40;8.18;;;;;;;;;;6153113;23;20059;-84
2022/06/23 08:59:07;;;;;;;10.23;8.55;;;;;;;;;;6153921;23;20056;-86
2022/06/23 09:01:44;;;;;;;12.10;9.82;;;;;;;;;;6128514;23;20017;-83
2022/06/23 09:04:10;;;;;;;12.35;8.43;;;;;;;;;;6153599;23;20452;-83
2022/06/23 09:06:39;;;;;;;12.88;7.93;;;;;;;;;;6153902;23;20016;-83
2022/06/23 09:09:13;;;;;;;55.13;22.85;;;;;;;;;;6152070;23;20005;-85
2022/06/23 09:11:59;;;;;;;102.75;42.00;;;;;;;;;;6152743;23;20013;-84
2022/06/23 09:14:41;;;;;;;118.57;49.40;;;;;;;;;;6126328;23;20009;-83
2022/06/23 09:17:14;;;;;;;174.85;68.13;;;;;;;;;;6153071;23;20010;-83
2022/06/23 09:20:04;;;;;;;55.22;25.52;;;;;;;;;;6153157;23;20740;-83
2022/06/23 09:22:37;;;;;;;16.73;8.90;;;;;;;;;;6153249;23;20033;-84
2022/06/23 09:25:12;;;;;;;16.60;8.35;;;;;;;;;;6154580;23;20002;-86
2022/06/23 09:27:57;;;;;;;10.70;7.47;;;;;;;;;;6152971;23;20001;-81
2022/06/23 09:33:49;;;;;;;11.40;7.22;;;;;;;;;;6062555;23;20015;-82
2022/06/23 09:37:00;;;;;;;;;;;;;;;;;;;;;
2022/06/23 09:39:31;;;;;;;15.98;8.90;;;;;;;;;;6144584;23;20020;-80
2022/06/23 09:42:26;;;;;;;;;;;;;;;;;;;;;
2022/06/23 09:51:29;;;;;;;;;;;;;;;;;;;;;
2022/06/23 09:54:12;;;;;;;11.40;6.97;;;;;;;;;;6148428;23;20010;-80
2022/06/23 09:56:41;;;;;;;13.32;7.70;;;;;;;;;;6126845;23;20434;-80
2022/06/23 09:59:25;;;;;;;13.02;6.63;;;;;;;;;;6152615;23;20013;-81
2022/06/23 10:02:19;;;;;;;15.10;7.32;;;;;;;;;;6151917;23;20492;-81
2022/06/23 10:04:49;;;;;;;11.35;6.15;;;;;;;;;;6151987;23;20341;-81
2022/06/23 10:10:25;;;;;;;14.32;7.20;;;;;;;;;;6135962;23;20013;-81
2022/06/23 10:15:56;;;;;;;11.55;5.50;;;;;;;;;;6061140;23;20022;-90
2022/06/23 10:18:40;;;;;;;13.32;6.78;;;;;;;;;;6068189;23;20535;-83
2022/06/23 10:24:20;;;;;;;12.93;6.55;;;;;;;;;;6138182;23;20041;-85
2022/06/23 10:26:46;;;;;;;11.88;5.90;;;;;;;;;;6154886;23;20005;-88
2022/06/23 10:29:13;;;;;;;13.30;5.55;;;;;;;;;;6153800;23;20084;-81
2022/06/23 10:31:57;;;;;;;11.38;5.80;;;;;;;;;;6128225;23;20010;-83
2022/06/23 10:34:31;;;;;;;15.00;7.15;;;;;;;;;;6153227;23;20001;-86
2022/06/23 10:36:57;;;;;;;23.80;10.45;;;;;;;;;;6154517;23;20036;-83
2022/06/23 10:39:23;;;;;;;26.05;11.98;;;;;;;;;;6154066;23;20005;-82
2022/06/23 10:41:55;;;;;;;82.03;34.15;;;;;;;;;;6154526;23;20006;-80
2022/06/23 10:44:38;;;;;;;49.67;21.25;;;;;;;;;;6152774;23;20006;-82
2022/06/23 10:47:04;;;;;;;21.52;10.50;;;;;;;;;;6154267;23;20129;-88
2022/06/23 10:49:42;;;;;;;20.33;9.63;;;;;;;;;;6154237;23;20001;-81
2022/06/23 10:52:27;;;;;;;17.63;8.13;;;;;;;;;;6154126;23;20013;-83
2022/06/23 10:55:11;;;;;;;17.42;7.38;;;;;;;;;;6153462;23;20002;-81
2022/06/23 10:57:56;;;;;;;14.18;8.68;;;;;;;;;;6154691;23;20145;-80
2022/06/23 11:00:41;;;;;;;52.30;22.92;;;;;;;;;;6153892;23;20043;-83
2022/06/23 11:03:12;;;;;;;146.35;61.13;;;;;;;;;;6153826;23;20008;-83
2022/06/23 11:05:47;;;;;;;88.82;39.15;;;;;;;;;;6153841;23;20141;-79
2022/06/23 11:08:32;;;;;;;173.73;75.85;;;;;;;;;;6153365;23;20024;-84
2022/06/23 11:11:17;;;;;;;185.23;82.00;;;;;;;;;;6154307;23;20009;-84
2022/06/23 11:13:51;;;;;;;244.63;107.90;;;;;;;;;;6127367;23;20013;-83
2022/06/23 11:16:19;;;;;;;103.53;43.67;;;;;;;;;;6154061;23;20521;-82
2022/06/23 11:18:53;;;;;;;38.50;16.55;;;;;;;;;;6153319;23;20007;-84
2022/06/23 11:21:19;;;;;;;;;;;;;;;;;;6154144;23;20005;-82
2022/06/23 11:24:04;;;;;;;21.13;11.55;;;;;;;;;;6153696;23;19980;-85
2022/06/23 11:26:52;;;;;;;28.15;13.10;;;;;;;;;;6153924;23;20113;-86
2022/06/23 11:29:37;;;;;;;15.98;7.97;;;;;;;;;;6153432;23;20333;-85
2022/06/23 11:32:03;;;;;;;14.50;6.32;;;;;;;;;;6153956;23;20012;-83
2022/06/23 11:34:47;;;;;;;15.32;6.65;;;;;;;;;;6153596;23;20028;-85
2022/06/23 11:37:16;;;;;;;20.08;15.65;;;;;;;;;;6153727;23;19997;-81
2022/06/23 11:39:52;;;;;;;19.77;14.25;;;;;;;;;;6153631;23;20001;-79
2022/06/23 11:42:37;;;;;;;12.90;7.32;;;;;;;;;;6154699;23;20414;-83
2022/06/23 11:45:21;;;;;;;14.98;6.85;;;;;;;;;;6154969;23;20001;-83
2022/06/23 11:48:06;;;;;;;9.55;5.38;;;;;;;;;;6154886;23;20072;-86
2022/06/23 11:50:32;;;;;;;12.38;6.00;;;;;;;;;;6154912;23;20013;-86
2022/06/23 11:53:17;;;;;;;40.72;21.67;;;;;;;;;;6155264;23;20014;-84
2022/06/23 11:55:52;;;;;;;172.07;84.45;;;;;;;;;;6154965;23;20418;-82
2022/06/23 11:58:29;;;;;;;81.68;40.28;;;;;;;;;;6155016;23;20307;-82
2022/06/23 12:01:15;;;;;;;29.65;14.63;;;;;;;;;;6154634;23;20037;-84
2022/06/23 12:03:41;;;;;;;18.48;8.75;;;;;;;;;;6154553;23;20064;-83
2022/06/23 12:06:10;;;;;;;18.00;7.35;;;;;;;;;;6154668;23;20013;-82
2022/06/23 12:08:53;;;;;;;14.10;6.55;;;;;;;;;;6154244;23;20260;-84
2022/06/23 12:11:25;;;;;;;15.88;6.40;;;;;;;;;;6154756;23;20006;-82
2022/06/23 12:13:54;;;;;;;13.82;6.82;;;;;;;;;;6154680;23;20085;-88
2022/06/23 12:16:20;;;;;;;11.90;6.68;;;;;;;;;;6154669;23;19998;-84
2022/06/23 12:19:07;;;;;;;11.50;6.22;;;;;;;;;;6154199;23;20005;-81
2022/06/23 12:21:52;;;;;;;13.73;5.90;;;;;;;;;;6154232;23;20002;-86
2022/06/23 12:24:36;;;;;;;16.38;7.47;;;;;;;;;;6154638;23;20076;-82
2022/06/23 12:27:20;;;;;;;13.35;5.93;;;;;;;;;;6155036;23;20337;-80
2022/06/23 12:29:51;;;;;;;11.18;5.75;;;;;;;;;;6127835;23;20013;-87
2022/06/23 12:32:20;;;;;;;13.82;5.85;;;;;;;;;;6154743;23;20406;-86
2022/06/23 12:34:51;;;;;;;15.80;5.85;;;;;;;;;;6128383;23;20017;-85
2022/06/23 12:37:29;;;;;;;15.38;6.28;;;;;;;;;;6154743;23;19998;-86
2022/06/23 12:40:01;;;;;;;11.80;6.68;;;;;;;;;;6154470;23;20001;-85
2022/06/23 12:42:38;;;;;;;18.20;6.53;;;;;;;;;;6154765;23;20010;-85
2022/06/23 12:45:22;;;;;;;13.27;6.10;;;;;;;;;;6154223;23;20472;-85
2022/06/23 12:47:48;;;;;;;12.10;5.88;;;;;;;;;;6153794;23;20446;-82
2022/06/23 12:50:29;;;;;;;16.85;6.20;;;;;;;;;;6154307;23;20001;-89
2022/06/23 12:53:14;;;;;;;12.48;6.65;;;;;;;;;;6154613;23;20333;-83
2022/06/23 12:55:50;;;;;;;13.13;4.65;;;;;;;;;;6127249;23;20014;-88
2022/06/23 12:58:16;;;;;;;12.02;5.55;;;;;;;;;;6154764;23;20072;-84
2022/06/23 13:00:54;;;;;;;10.50;4.90;;;;;;;;;;6154428;23;20028;-82
2022/06/23 13:03:44;;;;;;;8.75;4.65;;;;;;;;;;6155631;23;20415;-85
2022/06/23 13:06:36;;;;;;;11.45;5.25;;;;;;;;;;6136230;23;20013;-85
2022/06/23 13:09:24;;;;;;;16.45;6.82;;;;;;;;;;6146137;23;20022;-85
2022/06/23 13:12:09;;;;;;;18.50;7.85;;;;;;;;;;6154660;23;20382;-82
2022/06/23 13:14:42;;;;;;;14.40;6.22;;;;;;;;;;6155125;23;20329;-84
2022/06/23 13:17:26;;;;;;;14.00;6.27;;;;;;;;;;6154613;23;20009;-85
2022/06/23 13:19:58;;;;;;;17.02;7.72;;;;;;;;;;6128021;23;20315;-88
2022/06/23 13:22:26;;;;;;;10.75;5.32;;;;;;;;;;6128900;23;20017;-84
2022/06/23 13:24:54;;;;;;;14.15;6.80;;;;;;;;;;6128553;23;20134;-80
2022/06/23 13:27:21;;;;;;;9.23;4.90;;;;;;;;;;6155011;23;20028;-78
2022/06/23 13:29:47;;;;;;;10.23;4.47;;;;;;;;;;6154398;23;20005;-85
2022/06/23 13:32:32;;;;;;;8.90;4.85;;;;;;;;;;6154684;23;20008;-82
2022/06/23 13:35:07;;;;;;;12.43;5.50;;;;;;;;;;6154369;23;20013;-79
2022/06/23 13:37:37;;;;;;;13.23;6.05;;;;;;;;;;6154910;23;20001;-80
2022/06/23 13:40:09;;;;;;;11.93;5.63;;;;;;;;;;6154301;23;20077;-82
2022/06/23 13:42:49;;;;;;;12.68;5.97;;;;;;;;;;6154220;23;20008;-80
2022/06/23 13:45:28;;;;;;;10.77;5.38;;;;;;;;;;6154091;23;20036;-80
2022/06/23 13:47:57;;;;;;;12.10;5.82;;;;;;;;;;6154477;23;20001;-82
2022/06/23 13:50:23;;;;;;;15.57;5.68;;;;;;;;;;6154168;23;19997;-79
2022/06/23 13:52:52;;;;;;;11.20;6.00;;;;;;;;;;6154657;23;20013;-81
2022/06/23 13:55:22;;;;;;;14.98;7.03;;;;;;;;;;6155437;23;20449;-78
2022/06/23 13:57:51;;;;;;;14.05;6.93;;;;;;;;;;6156515;23;20117;-78
2022/06/23 14:00:20;;;;;;;12.38;9.25;;;;;;;;;;6156185;23;20380;-82
2022/06/23 14:03:05;;;;;;;14.35;9.40;;;;;;;;;;6156388;23;19993;-77
2022/06/23 14:05:42;;;;;;;15.10;9.65;;;;;;;;;;6155999;23;20005;-78
2022/06/23 14:08:31;;;;;;;15.77;9.70;;;;;;;;;;6155709;23;20214;-81
2022/06/23 14:11:16;;;;;;;13.68;10.50;;;;;;;;;;6063915;23;20040;-79
2022/06/23 14:13:51;;;;;;;13.93;10.38;;;;;;;;;;6156420;23;20005;-79
2022/06/23 14:16:23;;;;;;;14.48;8.82;;;;;;;;;;6156023;23;20004;-84
2022/06/23 14:18:49;;;;;;;12.32;9.73;;;;;;;;;;6155968;23;20091;-80
2022/06/23 14:21:34;;;;;;;14.60;9.32;;;;;;;;;;6155856;23;20013;-80
2022/06/23 14:24:00;;;;;;;13.07;8.68;;;;;;;;;;6155997;23;20447;-79
2022/06/23 14:26:42;;;;;;;12.25;9.25;;;;;;;;;;6156185;23;20013;-78
2022/06/23 14:29:11;;;;;;;12.30;8.45;;;;;;;;;;6129773;23;20009;-80
2022/06/23 14:31:42;;;;;;;10.10;8.68;;;;;;;;;;6155943;23;20032;-81
2022/06/23 14:34:20;;;;;;;12.15;8.07;;;;;;;;;;6156199;23;20001;-80
2022/06/23 14:36:50;;;;;;;15.20;10.95;;;;;;;;;;6156014;23;19997;-81
2022/06/23 14:39:34;;;;;;;13.93;8.77;;;;;;;;;;6155775;23;20064;-80
2022/06/23 14:42:04;;;;;;;12.68;7.88;;;;;;;;;;6155932;23;20006;-81
2022/06/23 14:44:48;;;;;;;11.13;8.20;;;;;;;;;;6156242;23;20381;-79
2022/06/23 14:47:17;;;;;;;10.68;8.60;;;;;;;;;;6155905;23;20032;-79
2022/06/23 14:49:49;;;;;;;8.93;8.00;;;;;;;;;;6155840;23;20005;-82
2022/06/23 14:52:18;;;;;;;10.73;7.85;;;;;;;;;;6156059;23;20491;-79
2022/06/23 14:54:49;;;;;;;10.35;7.97;;;;;;;;;;6155801;23;20029;-80
2022/06/23 14:57:22;;;;;;;11.27;8.30;;;;;;;;;;6155701;23;20006;-82
2022/06/23 15:00:07;;;;;;;12.32;7.30;;;;;;;;;;6155335;23;20187;-80
2022/06/23 15:02:42;;;;;;;10.13;8.25;;;;;;;;;;6155591;23;20584;-79
2022/06/23 15:05:27;;;;;;;11.48;8.13;;;;;;;;;;6156137;23;20028;-80
2022/06/23 15:08:12;;;;;;;12.73;8.38;;;;;;;;;;6155186;23;20077;-80
2022/06/23 15:10:38;;;;;;;14.52;9.02;;;;;;;;;;6155856;23;20001;-79
2022/06/23 15:13:23;;;;;;;13.07;8.88;;;;;;;;;;6156141;23;19997;-82
2022/06/23 15:15:54;;;;;;;15.55;9.00;;;;;;;;;;6155552;23;20068;-80
2022/06/23 15:18:30;;;;;;;12.15;8.90;;;;;;;;;;6156024;23;20012;-80
2022/06/23 15:24:18;;;;;;;13.50;8.77;;;;;;;;;;6155938;23;20109;-84
2022/06/23 15:26:46;;;;;;;12.30;9.60;;;;;;;;;;6156003;23;20382;-79
2022/06/23 15:29:30;;;;;;;12.15;10.00;;;;;;;;;;6155822;23;20092;-79
2022/06/23 15:32:01;;;;;;;11.95;9.35;;;;;;;;;;6155393;23;20029;-81
2022/06/23 15:34:28;;;;;;;16.17;9.68;;;;;;;;;;6155161;23;20013;-81
2022/06/23 15:37:10;;;;;;;11.52;10.43;;;;;;;;;;6155646;23;20006;-84
2022/06/23 15:39:39;;;;;;;11.63;10.13;;;;;;;;;;6155554;23;20025;-81
2022/06/23 15:42:05;;;;;;;15.50;13.00;;;;;;;;;;6155345;23;20426;-80
2022/06/23 15:44:50;;;;;;;17.73;15.98;;;;;;;;;;6155683;23;20021;-80
2022/06/23 15:47:34;;;;;;;14.00;12.30;;;;;;;;;;6155412;23;19994;-82
2022/06/23 15:50:00;;;;;;;13.10;11.20;;;;;;;;;;6155289;23;20084;-80
2022/06/23 15:52:32;;;;;;;14.70;13.05;;;;;;;;;;6155348;23;20008;-83
2022/06/23 15:54:58;;;;;;;13.90;12.52;;;;;;;;;;6155149;23;20006;-80
2022/06/23 15:57:36;;;;;;;15.00;12.25;;;;;;;;;;6155035;23;20344;-79